createdAt,value
2023-09-13T00:01:18.631Z,19.30
2023-09-13T00:03:45.905Z,17.30
2023-09-13T00:06:13.282Z,21.60
2023-09-13T00:08:40.048Z,19.60
2023-09-13T00:11:07.040Z,20.40
2023-09-13T00:13:33.905Z,16.90
2023-09-13T00:16:01.514Z,19.90
2023-09-13T00:18:28.976Z,19.20
2023-09-13T00:20:56.170Z,15.30
2023-09-13T00:23:23.112Z,18.90
2023-09-13T00:25:50.899Z,18.00
2023-09-13T00:28:17.887Z,17.30
2023-09-13T00:30:45.024Z,14.50
2023-09-13T00:33:12.416Z,16.30
2023-09-13T00:35:39.215Z,16.80
2023-09-13T00:38:07.141Z,14.70
2023-09-13T00:40:33.987Z,16.20
2023-09-13T00:43:01.198Z,15.00
2023-09-13T00:45:30.304Z,16.50
2023-09-13T00:47:57.291Z,15.60
2023-09-13T00:50:24.578Z,15.50
2023-09-13T00:52:51.706Z,15.50
2023-09-13T00:55:18.883Z,16.70
2023-09-13T00:57:46.103Z,15.80
2023-09-13T01:00:13.633Z,15.80
2023-09-13T01:02:40.997Z,15.50
2023-09-13T01:05:09.481Z,16.90
2023-09-13T01:07:40.881Z,13.60
2023-09-13T01:10:10.880Z,15.60
2023-09-13T01:12:38.393Z,13.80
2023-09-13T01:15:09.008Z,15.30
2023-09-13T01:17:45.012Z,13.70
2023-09-13T01:20:49.826Z,12.10
2023-09-13T01:23:35.475Z,11.30
2023-09-13T01:26:26.824Z,11.90
2023-09-13T01:28:55.733Z,12.60
2023-09-13T01:31:22.893Z,12.10
2023-09-13T01:33:50.039Z,14.10
2023-09-13T01:36:17.067Z,12.40
2023-09-13T01:38:44.007Z,12.60
2023-09-13T01:41:18.043Z,13.00
2023-09-13T01:43:45.285Z,15.30
2023-09-13T01:46:13.579Z,11.50
2023-09-13T01:48:41.041Z,11.20
2023-09-13T01:51:08.644Z,14.30
2023-09-13T01:53:45.912Z,14.60
2023-09-13T01:56:13.429Z,14.10
2023-09-13T01:58:40.368Z,17.60
2023-09-13T02:01:07.396Z,17.90
2023-09-13T02:03:34.482Z,14.30
2023-09-13T02:06:01.255Z,11.80
2023-09-13T02:08:28.581Z,13.70
2023-09-13T02:10:55.473Z,15.50
2023-09-13T02:13:22.386Z,13.20
2023-09-13T02:15:49.491Z,14.20
2023-09-13T02:18:17.405Z,13.60
2023-09-13T02:20:45.102Z,15.50
2023-09-13T02:23:12.149Z,14.50
2023-09-13T02:25:40.861Z,15.50
2023-09-13T02:28:07.869Z,16.20
2023-09-13T02:30:35.753Z,15.50
2023-09-13T02:33:03.194Z,13.70
2023-09-13T02:35:30.998Z,15.20
2023-09-13T02:37:58.332Z,13.80
2023-09-13T02:40:25.825Z,14.60
2023-09-13T02:42:53.055Z,16.30
2023-09-13T02:45:19.972Z,12.40
2023-09-13T02:47:47.053Z,14.40
2023-09-13T02:50:14.011Z,13.30
2023-09-13T02:52:41.054Z,13.50
2023-09-13T02:55:08.771Z,14.40
2023-09-13T02:57:35.763Z,16.70
2023-09-13T03:00:06.418Z,15.70
2023-09-13T03:02:36.667Z,14.90
2023-09-13T03:05:06.304Z,13.40
2023-09-13T03:07:33.389Z,13.70
2023-09-13T03:10:00.465Z,15.90
2023-09-13T03:12:27.772Z,14.80
2023-09-13T03:14:57.772Z,15.00
2023-09-13T03:17:25.221Z,12.30
2023-09-13T03:19:52.485Z,14.40
2023-09-13T03:22:20.198Z,14.70
2023-09-13T03:24:47.309Z,12.80
2023-09-13T03:27:14.636Z,13.70
2023-09-13T03:29:41.793Z,13.60
2023-09-13T03:32:09.222Z,11.10
2023-09-13T03:34:38.785Z,14.90
2023-09-13T03:37:07.115Z,12.40
2023-09-13T03:39:35.201Z,12.90
2023-09-13T03:42:02.258Z,14.40
2023-09-13T03:44:29.810Z,12.00
2023-09-13T03:46:56.857Z,11.40
2023-09-13T03:49:24.014Z,14.00
2023-09-13T03:51:51.182Z,13.30
2023-09-13T03:54:18.760Z,10.00
2023-09-13T03:56:45.812Z,10.10
2023-09-13T03:59:12.834Z,10.60
2023-09-13T04:01:40.003Z,12.30
2023-09-13T04:04:07.957Z,11.20
2023-09-13T04:06:35.164Z,10.70
2023-09-13T04:09:02.122Z,9.50
2023-09-13T04:11:29.643Z,9.30
2023-09-13T04:13:57.405Z,9.70
2023-09-13T04:16:24.423Z,11.30
2023-09-13T04:18:51.610Z,11.30
2023-09-13T04:21:18.961Z,11.50
2023-09-13T04:23:46.111Z,10.80
2023-09-13T04:26:14.078Z,11.10
2023-09-13T04:28:40.964Z,13.30
2023-09-13T04:31:08.288Z,11.00
2023-09-13T04:33:54.573Z,12.10
2023-09-13T04:36:31.171Z,12.80
2023-09-13T04:38:58.391Z,12.60
2023-09-13T04:41:25.431Z,11.10
2023-09-13T04:43:52.373Z,12.90
2023-09-13T04:46:20.114Z,15.00
2023-09-13T04:48:47.323Z,14.90
2023-09-13T04:51:14.443Z,12.60
2023-09-13T04:53:41.351Z,12.00
2023-09-13T04:56:08.838Z,14.10
2023-09-13T04:58:40.241Z,14.00
2023-09-13T05:01:07.518Z,14.10
2023-09-13T05:03:35.472Z,13.70
2023-09-13T05:06:02.681Z,12.10
2023-09-13T05:08:29.787Z,11.90
2023-09-13T05:10:56.651Z,12.40
2023-09-13T05:13:23.731Z,12.90
2023-09-13T05:15:50.849Z,14.60
2023-09-13T05:18:18.477Z,14.00
2023-09-13T05:20:45.430Z,15.90
2023-09-13T05:23:12.222Z,17.90
2023-09-13T05:25:45.866Z,14.20
2023-09-13T05:28:13.940Z,15.50
2023-09-13T05:30:41.413Z,14.40
2023-09-13T05:33:08.892Z,12.40
2023-09-13T05:35:36.021Z,13.00
2023-09-13T05:38:02.858Z,11.00
2023-09-13T05:40:30.875Z,15.30
2023-09-13T05:42:58.214Z,11.40
2023-09-13T05:45:25.860Z,12.90
2023-09-13T05:47:52.958Z,9.70
2023-09-13T05:50:21.005Z,9.10
2023-09-13T05:52:48.032Z,11.70
2023-09-13T05:55:14.942Z,8.70
2023-09-13T05:57:42.130Z,14.40
2023-09-13T06:00:09.803Z,10.40
2023-09-13T06:02:39.467Z,9.20
2023-09-13T06:05:08.673Z,10.60
2023-09-13T06:07:38.576Z,9.20
2023-09-13T06:10:06.085Z,9.90
2023-09-13T06:12:33.390Z,9.70
2023-09-13T06:15:00.386Z,9.60
2023-09-13T06:17:27.627Z,9.60
2023-09-13T06:19:54.637Z,9.30
2023-09-13T06:22:22.049Z,10.20
2023-09-13T06:24:51.104Z,7.00
2023-09-13T06:27:18.148Z,9.70
2023-09-13T06:29:45.013Z,8.10
2023-09-13T06:32:31.701Z,7.90
2023-09-13T06:35:00.037Z,8.00
2023-09-13T06:37:28.243Z,8.90
2023-09-13T06:39:55.613Z,6.60
2023-09-13T06:42:28.659Z,7.50
2023-09-13T06:45:14.751Z,8.60
2023-09-13T06:47:44.009Z,6.90
2023-09-13T06:50:12.625Z,6.20
2023-09-13T06:52:54.017Z,6.40
2023-09-13T06:55:32.179Z,6.90
2023-09-13T06:58:10.766Z,8.60
2023-09-13T07:00:57.420Z,6.00
2023-09-13T07:03:31.151Z,8.20
2023-09-13T07:06:00.898Z,8.90
2023-09-13T07:08:28.045Z,6.40
2023-09-13T07:10:55.003Z,5.60
2023-09-13T07:13:22.129Z,5.30
2023-09-13T07:15:49.190Z,7.40
2023-09-13T07:18:16.287Z,4.60
2023-09-13T07:20:43.293Z,7.90
2023-09-13T07:23:10.378Z,5.60
2023-09-13T07:25:37.421Z,5.50
2023-09-13T07:28:04.836Z,7.00
2023-09-13T07:30:31.785Z,7.40
2023-09-13T07:32:59.190Z,6.40
2023-09-13T07:35:26.652Z,7.40
2023-09-13T07:37:54.850Z,7.50
2023-09-13T07:40:23.062Z,5.50
2023-09-13T07:42:49.897Z,6.40
2023-09-13T07:45:16.894Z,7.30
2023-09-13T07:47:44.421Z,6.00
2023-09-13T07:50:34.701Z,6.30
2023-09-13T07:53:05.599Z,7.10
2023-09-13T07:55:34.067Z,12.30
2023-09-13T07:58:01.587Z,11.70
2023-09-13T08:00:28.556Z,14.50
2023-09-13T08:02:56.262Z,13.40
2023-09-13T08:05:23.447Z,10.10
2023-09-13T08:07:50.590Z,9.10
2023-09-13T08:10:17.651Z,6.90
2023-09-13T08:12:44.703Z,4.70
2023-09-13T08:15:11.760Z,6.20
2023-09-13T08:17:38.943Z,4.70
2023-09-13T08:20:09.625Z,6.10
2023-09-13T08:22:39.925Z,4.80
2023-09-13T08:25:10.772Z,4.70
2023-09-13T08:27:37.911Z,5.40
2023-09-13T08:30:05.682Z,5.90
2023-09-13T08:32:32.617Z,5.40
2023-09-13T08:34:59.684Z,5.70
2023-09-13T08:37:28.385Z,5.70
2023-09-13T08:39:57.690Z,4.50
2023-09-13T08:42:25.738Z,8.60
2023-09-13T08:44:53.104Z,9.90
2023-09-13T08:47:22.861Z,11.30
2023-09-13T08:49:50.136Z,11.80
2023-09-13T08:52:17.369Z,13.50
2023-09-13T08:54:57.304Z,15.70
2023-09-13T08:57:26.193Z,18.40
2023-09-13T08:59:54.014Z,19.10
2023-09-13T09:02:21.793Z,23.70
2023-09-13T09:04:49.065Z,25.20
2023-09-13T09:07:18.100Z,23.40
2023-09-13T09:09:47.834Z,21.40
2023-09-13T09:12:18.162Z,26.30
2023-09-13T09:14:47.889Z,23.80
2023-09-13T09:17:15.519Z,20.30
2023-09-13T09:19:42.546Z,20.70
2023-09-13T09:22:09.658Z,19.10
2023-09-13T09:24:36.674Z,18.80
2023-09-13T09:27:04.190Z,17.10
2023-09-13T09:29:42.200Z,10.10
2023-09-13T09:32:09.674Z,14.60
2023-09-13T09:34:43.526Z,14.10
2023-09-13T09:37:11.985Z,10.40
2023-09-13T09:39:40.782Z,13.30
2023-09-13T09:42:07.841Z,7.50
2023-09-13T09:44:34.888Z,6.10
2023-09-13T09:47:01.980Z,5.70
2023-09-13T09:49:29.271Z,4.60
2023-09-13T09:51:56.118Z,4.50
2023-09-13T09:54:23.272Z,5.40
2023-09-13T09:56:50.223Z,6.00
2023-09-13T09:59:17.306Z,7.10
2023-09-13T10:01:46.334Z,9.20
2023-09-13T10:04:13.525Z,6.00
2023-09-13T10:07:00.816Z,7.20
2023-09-13T10:09:40.336Z,5.80
2023-09-13T10:12:08.533Z,3.50
2023-09-13T10:14:36.432Z,4.10
2023-09-13T10:17:04.249Z,3.70
2023-09-13T10:19:32.046Z,5.80
2023-09-13T10:21:59.450Z,4.40
2023-09-13T10:24:39.140Z,4.70
2023-09-13T10:27:08.036Z,4.80
2023-09-13T10:29:56.961Z,3.60
2023-09-13T10:32:31.256Z,5.40
2023-09-13T10:34:59.369Z,3.70
2023-09-13T10:37:26.353Z,3.80
2023-09-13T10:40:00.283Z,4.60
2023-09-13T10:42:27.380Z,3.30
2023-09-13T10:44:54.630Z,3.20
2023-09-13T10:47:21.996Z,4.50
2023-09-13T10:49:49.459Z,3.90
2023-09-13T10:52:16.850Z,3.20
2023-09-13T10:54:43.999Z,3.60
2023-09-13T10:57:10.995Z,3.30
2023-09-13T10:59:38.085Z,3.00
2023-09-13T11:02:06.262Z,4.40
2023-09-13T11:04:33.768Z,3.20
2023-09-13T11:07:01.809Z,3.20
2023-09-13T11:09:32.578Z,3.10
2023-09-13T11:12:00.037Z,2.80
2023-09-13T11:14:29.201Z,3.90
2023-09-13T11:16:58.294Z,4.40
2023-09-13T11:19:28.487Z,3.40
2023-09-13T11:22:00.847Z,4.20
2023-09-13T11:24:57.142Z,3.40
2023-09-13T11:27:28.916Z,2.70
2023-09-13T11:29:58.213Z,2.90
2023-09-13T11:32:29.472Z,3.50
2023-09-13T11:34:57.776Z,3.00
2023-09-13T11:37:25.817Z,3.20
2023-09-13T11:39:56.315Z,2.80
2023-09-13T11:42:35.464Z,2.90
2023-09-13T11:45:26.797Z,4.90
2023-09-13T11:47:57.229Z,4.30
2023-09-13T11:50:42.137Z,2.80
2023-09-13T11:53:21.357Z,3.50
2023-09-13T11:58:50.965Z,2.90
2023-09-13T12:01:26.438Z,2.60
2023-09-13T12:04:35.109Z,2.90
2023-09-13T12:06:48.547Z,2.60
2023-09-13T12:09:19.452Z,3.10
2023-09-13T12:11:52.397Z,2.20
2023-09-13T12:14:30.776Z,2.20
2023-09-13T12:17:08.337Z,2.50
2023-09-13T12:19:37.953Z,1.90
2023-09-13T12:22:04.945Z,4.70
2023-09-13T12:24:32.209Z,2.40
2023-09-13T12:26:59.432Z,2.80
2023-09-13T12:29:26.635Z,2.70
2023-09-13T12:31:58.135Z,2.90
2023-09-13T12:34:25.391Z,3.00
2023-09-13T12:36:52.953Z,2.30
2023-09-13T12:39:21.560Z,2.60
2023-09-13T12:41:48.909Z,2.60
2023-09-13T12:44:19.037Z,2.60
2023-09-13T12:46:46.105Z,2.20
2023-09-13T12:49:13.236Z,2.30
2023-09-13T12:51:40.884Z,4.80
2023-09-13T12:54:13.711Z,2.60
2023-09-13T12:56:40.877Z,2.00
2023-09-13T12:59:09.476Z,2.50
2023-09-13T13:01:36.882Z,2.60
2023-09-13T13:04:11.296Z,3.30
2023-09-13T13:06:54.695Z,3.50
2023-09-13T13:09:22.880Z,5.70
2023-09-13T13:11:50.319Z,2.50
2023-09-13T13:14:23.887Z,2.60
2023-09-13T13:16:55.104Z,4.20
2023-09-13T13:22:11.459Z,3.00
2023-09-13T13:24:39.725Z,2.60
2023-09-13T13:27:07.683Z,2.90
2023-09-13T13:29:35.951Z,2.70
2023-09-13T13:32:03.739Z,3.00
2023-09-13T13:34:31.068Z,2.60
2023-09-13T13:36:58.180Z,2.60
2023-09-13T13:39:25.371Z,2.50
2023-09-13T13:41:52.439Z,4.00
2023-09-13T13:44:19.566Z,2.90
2023-09-13T13:46:46.858Z,2.20
2023-09-13T13:49:18.568Z,2.50
2023-09-13T13:51:47.194Z,2.10
2023-09-13T13:54:15.225Z,3.20
2023-09-13T13:56:43.032Z,6.80
2023-09-13T13:59:11.655Z,3.90
2023-09-13T14:01:39.081Z,3.20
2023-09-13T14:04:06.423Z,5.00
2023-09-13T14:06:33.625Z,3.70
2023-09-13T14:09:04.277Z,4.20
2023-09-13T14:11:31.687Z,4.70
2023-09-13T14:13:58.584Z,5.10
2023-09-13T14:16:25.594Z,4.30
2023-09-13T14:18:52.478Z,6.60
2023-09-13T14:21:19.635Z,4.30
2023-09-13T14:23:47.134Z,3.70
2023-09-13T14:26:14.667Z,3.80
2023-09-13T14:28:41.855Z,5.60
2023-09-13T14:31:13.679Z,5.30
2023-09-13T14:33:47.021Z,4.00
2023-09-13T14:36:15.282Z,4.70
2023-09-13T14:38:42.378Z,4.80
2023-09-13T14:41:09.178Z,4.40
2023-09-13T14:43:37.647Z,5.00
2023-09-13T14:46:04.968Z,5.50
2023-09-13T14:48:32.749Z,6.10
2023-09-13T14:51:00.240Z,6.70
2023-09-13T14:53:27.342Z,7.00
2023-09-13T14:55:56.160Z,5.90
2023-09-13T14:58:23.484Z,6.30
2023-09-13T15:00:51.221Z,5.50
2023-09-13T15:03:19.134Z,5.90
2023-09-13T15:05:46.459Z,8.30
2023-09-13T15:08:13.453Z,6.80
2023-09-13T15:10:40.663Z,6.00
2023-09-13T15:13:07.691Z,8.30
2023-09-13T15:15:34.692Z,9.30
2023-09-13T15:18:02.030Z,9.50
2023-09-13T15:20:29.479Z,8.50
2023-09-13T15:22:56.405Z,8.50
2023-09-13T15:25:23.643Z,11.30
2023-09-13T15:27:50.620Z,8.00
2023-09-13T15:30:17.676Z,9.80
2023-09-13T15:32:46.298Z,8.60
2023-09-13T15:35:14.354Z,11.10
2023-09-13T15:37:41.984Z,9.80
2023-09-13T15:40:10.020Z,10.80
2023-09-13T15:42:37.840Z,7.50
2023-09-13T15:45:06.296Z,8.40
2023-09-13T15:47:33.410Z,7.30
2023-09-13T15:50:03.068Z,7.00
2023-09-13T15:52:30.501Z,5.90
2023-09-13T15:54:58.528Z,6.10
2023-09-13T15:57:25.661Z,6.00
2023-09-13T15:59:52.730Z,7.50
2023-09-13T16:02:19.825Z,6.10
2023-09-13T16:04:47.447Z,8.80
2023-09-13T16:07:14.167Z,8.30
2023-09-13T16:09:41.144Z,8.70
2023-09-13T16:12:08.390Z,11.60
2023-09-13T16:14:36.444Z,9.60
2023-09-13T16:17:04.320Z,9.30
2023-09-13T16:19:31.496Z,8.20
2023-09-13T16:21:58.407Z,9.10
2023-09-13T16:24:25.509Z,9.10
2023-09-13T16:26:52.600Z,13.90
2023-09-13T16:29:19.717Z,11.80
2023-09-13T16:31:47.577Z,11.50
2023-09-13T16:34:15.439Z,13.60
2023-09-13T16:36:42.699Z,11.70
2023-09-13T16:39:09.721Z,12.80
2023-09-13T16:41:39.312Z,13.90
2023-09-13T16:44:06.298Z,11.60
2023-09-13T16:46:33.726Z,11.70
2023-09-13T16:49:01.121Z,9.10
2023-09-13T16:51:28.929Z,9.60
2023-09-13T16:53:56.308Z,10.20
2023-09-13T16:56:23.864Z,12.20
2023-09-13T16:58:51.191Z,10.70
2023-09-13T17:01:18.924Z,13.00
2023-09-13T17:03:46.322Z,12.40
2023-09-13T17:06:14.289Z,10.50
2023-09-13T17:08:42.281Z,14.00
2023-09-13T17:11:13.787Z,9.40
2023-09-13T17:13:41.291Z,9.40
2023-09-13T17:16:08.896Z,11.90
2023-09-13T17:18:36.394Z,10.70
2023-09-13T17:21:04.390Z,10.10
2023-09-13T17:23:31.530Z,12.70
2023-09-13T17:25:58.834Z,13.10
2023-09-13T17:28:25.940Z,12.70
2023-09-13T17:30:53.640Z,14.90
2023-09-13T17:33:20.991Z,11.60
2023-09-13T17:35:48.461Z,11.00
2023-09-13T17:38:17.659Z,12.40
2023-09-13T17:40:46.041Z,10.80
2023-09-13T17:43:13.415Z,10.90
2023-09-13T17:45:40.720Z,13.80
2023-09-13T17:48:08.096Z,12.00
2023-09-13T17:50:35.686Z,12.00
2023-09-13T17:53:04.969Z,12.40
2023-09-13T17:55:32.118Z,12.70
2023-09-13T17:58:03.465Z,13.40
2023-09-13T18:00:31.519Z,12.70
2023-09-13T18:03:00.111Z,15.10
2023-09-13T18:05:27.930Z,13.10
2023-09-13T18:07:57.393Z,13.60
2023-09-13T18:10:25.501Z,13.30
2023-09-13T18:12:52.657Z,11.50
2023-09-13T18:15:20.330Z,12.60
2023-09-13T18:17:55.115Z,11.00
2023-09-13T18:20:26.225Z,12.90
2023-09-13T18:22:54.052Z,11.20
2023-09-13T18:25:21.219Z,13.10
2023-09-13T18:27:48.894Z,11.10
2023-09-13T18:30:16.593Z,10.90
2023-09-13T18:32:43.943Z,11.70
2023-09-13T18:35:11.298Z,10.50
2023-09-13T18:37:38.922Z,9.80
2023-09-13T18:40:06.876Z,13.60
2023-09-13T18:42:35.478Z,11.20
2023-09-13T18:45:03.908Z,10.70
2023-09-13T18:47:32.686Z,9.90
2023-09-13T18:50:00.355Z,9.50
2023-09-13T18:52:28.415Z,24.00
2023-09-13T18:54:55.358Z,11.50
2023-09-13T18:57:23.062Z,11.20
2023-09-13T18:59:50.789Z,15.50
2023-09-13T19:02:18.769Z,12.00
2023-09-13T19:04:47.290Z,14.00
2023-09-13T19:07:14.539Z,11.20
2023-09-13T19:09:41.988Z,10.70
2023-09-13T19:12:10.784Z,10.30
2023-09-13T19:14:37.786Z,12.10
2023-09-13T19:17:04.934Z,15.40
2023-09-13T19:19:32.974Z,12.10
2023-09-13T19:22:00.965Z,16.80
2023-09-13T19:24:38.722Z,18.30
2023-09-13T19:27:06.969Z,22.20
2023-09-13T19:29:34.735Z,20.80
2023-09-13T19:32:01.684Z,16.90
2023-09-13T19:34:28.826Z,13.70
2023-09-13T19:36:56.107Z,12.80
2023-09-13T19:39:23.413Z,14.50
2023-09-13T19:41:50.975Z,15.10
2023-09-13T19:44:18.840Z,15.20
2023-09-13T19:46:46.465Z,14.50
2023-09-13T19:49:13.816Z,11.50
2023-09-13T19:51:40.812Z,13.60
2023-09-13T19:54:08.069Z,15.90
2023-09-13T19:56:36.752Z,12.60
2023-09-13T19:59:03.745Z,15.40
2023-09-13T20:01:30.651Z,15.10
2023-09-13T20:03:58.120Z,15.30
2023-09-13T20:06:25.710Z,16.60
2023-09-13T20:08:52.765Z,17.50
2023-09-13T20:11:19.951Z,19.40
2023-09-13T20:13:46.767Z,18.90
2023-09-13T20:16:13.756Z,19.60
2023-09-13T20:18:40.874Z,14.90
2023-09-13T20:21:07.857Z,17.20
2023-09-13T20:23:34.804Z,14.40
2023-09-13T20:26:01.864Z,16.10
2023-09-13T20:28:33.219Z,13.70
2023-09-13T20:31:00.817Z,17.80
2023-09-13T20:33:28.492Z,18.40
2023-09-13T20:35:55.520Z,15.60
2023-09-13T20:38:22.448Z,15.10
2023-09-13T20:40:51.361Z,15.00
2023-09-13T20:43:18.285Z,19.00
2023-09-13T20:45:46.343Z,14.30
2023-09-13T20:48:13.494Z,15.40
2023-09-13T20:50:40.781Z,18.00
2023-09-13T20:53:07.850Z,17.00
2023-09-13T20:55:35.428Z,14.20
2023-09-13T20:58:02.666Z,14.50
2023-09-13T21:00:30.117Z,14.70
2023-09-13T21:02:57.311Z,11.60
2023-09-13T21:05:24.316Z,12.10
2023-09-13T21:07:51.527Z,16.60
2023-09-13T21:10:18.683Z,14.00
2023-09-13T21:12:46.620Z,9.80
2023-09-13T21:15:13.519Z,14.00
2023-09-13T21:17:40.587Z,11.70
2023-09-13T21:20:08.129Z,11.90
2023-09-13T21:22:35.663Z,12.80
2023-09-13T21:25:02.994Z,10.10
2023-09-13T21:27:31.580Z,11.90
2023-09-13T21:29:58.851Z,13.20
2023-09-13T21:32:25.923Z,11.80
2023-09-13T21:35:01.404Z,13.70
2023-09-13T21:37:32.159Z,13.20
2023-09-13T21:40:05.802Z,15.90
2023-09-13T21:42:33.083Z,16.80
2023-09-13T21:45:00.108Z,19.30
2023-09-13T21:47:27.229Z,21.20
2023-09-13T21:49:54.291Z,12.00
2023-09-13T21:52:21.249Z,14.50
2023-09-13T21:54:48.933Z,12.90
2023-09-13T21:57:19.690Z,16.40
2023-09-13T21:59:46.710Z,13.40
2023-09-13T22:02:13.982Z,13.50
2023-09-13T22:04:41.499Z,12.40
2023-09-13T22:07:08.919Z,19.80
2023-09-13T22:09:36.842Z,19.80
2023-09-13T22:12:05.344Z,13.70
2023-09-13T22:14:32.734Z,12.70
2023-09-13T22:16:59.812Z,12.30
2023-09-13T22:19:27.244Z,12.30
2023-09-13T22:21:55.283Z,11.10
2023-09-13T22:24:24.544Z,11.40
2023-09-13T22:26:51.693Z,13.50
2023-09-13T22:29:18.798Z,13.90
2023-09-13T22:31:45.826Z,14.30
2023-09-13T22:34:13.251Z,11.50
2023-09-13T22:36:40.284Z,13.90
2023-09-13T22:39:09.322Z,11.90
2023-09-13T22:41:41.013Z,13.70
2023-09-13T22:44:08.317Z,11.60
2023-09-13T22:46:36.683Z,9.80
2023-09-13T22:49:04.246Z,15.30
2023-09-13T22:51:31.313Z,10.20
2023-09-13T22:53:59.129Z,10.70
2023-09-13T22:56:26.183Z,13.10
2023-09-13T22:58:53.628Z,12.40
2023-09-13T23:01:20.809Z,11.90
2023-09-13T23:03:48.141Z,10.00
2023-09-13T23:06:15.606Z,14.70
2023-09-13T23:08:42.613Z,13.60
2023-09-13T23:11:09.738Z,11.30
2023-09-13T23:13:36.506Z,12.60
2023-09-13T23:16:07.897Z,12.40
2023-09-13T23:18:35.866Z,12.50
2023-09-13T23:21:03.475Z,13.00
2023-09-13T23:23:30.895Z,12.60
2023-09-13T23:26:02.038Z,11.40
2023-09-13T23:28:29.802Z,12.10
2023-09-13T23:31:06.928Z,11.40
2023-09-13T23:33:35.192Z,15.40
2023-09-13T23:36:06.121Z,18.70
2023-09-13T23:38:33.064Z,16.60
2023-09-13T23:41:05.469Z,14.50
2023-09-13T23:43:33.660Z,15.40
2023-09-13T23:46:01.469Z,15.80
2023-09-13T23:48:28.517Z,13.30
2023-09-13T23:50:55.434Z,19.70
2023-09-13T23:53:22.894Z,23.10
2023-09-13T23:55:49.928Z,19.80
2023-09-13T23:58:17.182Z,19.20
